sensor_id;sensor_type;location;lat;lon;timestamp;P1;durP1;ratioP1;P2;durP2;ratioP2
37791;SDS011;29527;55.766;37.570;2022-09-11T00:01:24;35.20;;;16.08;;
37791;SDS011;29527;55.766;37.570;2022-09-11T00:03:51;35.25;;;15.98;;
37791;SDS011;29527;55.766;37.570;2022-09-11T00:06:19;32.15;;;16.27;;
37791;SDS011;29527;55.766;37.570;2022-09-11T00:08:44;31.90;;;16.42;;
37791;SDS011;29527;55.766;37.570;2022-09-11T00:11:11;40.78;;;16.20;;
37791;SDS011;29527;55.766;37.570;2022-09-11T00:13:42;43.30;;;16.02;;
37791;SDS011;29527;55.766;37.570;2022-09-11T00:16:20;35.58;;;15.32;;
37791;SDS011;29527;55.766;37.570;2022-09-11T00:18:58;34.40;;;15.65;;
37791;SDS011;29527;55.766;37.570;2022-09-11T00:21:26;35.67;;;16.48;;
37791;SDS011;29527;55.766;37.570;2022-09-11T00:23:53;36.00;;;15.98;;
37791;SDS011;29527;55.766;37.570;2022-09-11T00:26:19;34.97;;;15.27;;
37791;SDS011;29527;55.766;37.570;2022-09-11T00:28:46;36.15;;;16.80;;
37791;SDS011;29527;55.766;37.570;2022-09-11T00:31:16;34.58;;;15.98;;
37791;SDS011;29527;55.766;37.570;2022-09-11T00:33:43;38.38;;;16.33;;
37791;SDS011;29527;55.766;37.570;2022-09-11T00:36:11;33.13;;;16.05;;
37791;SDS011;29527;55.766;37.570;2022-09-11T00:38:38;43.33;;;15.90;;
37791;SDS011;29527;55.766;37.570;2022-09-11T00:41:06;39.50;;;16.30;;
37791;SDS011;29527;55.766;37.570;2022-09-11T00:46:20;43.45;;;15.80;;
37791;SDS011;29527;55.766;37.570;2022-09-11T00:48:48;37.47;;;15.88;;
37791;SDS011;29527;55.766;37.570;2022-09-11T00:51:21;38.90;;;15.65;;
37791;SDS011;29527;55.766;37.570;2022-09-11T00:53:50;41.20;;;15.82;;
37791;SDS011;29527;55.766;37.570;2022-09-11T00:56:18;36.22;;;14.60;;
37791;SDS011;29527;55.766;37.570;2022-09-11T00:58:47;37.85;;;15.63;;
37791;SDS011;29527;55.766;37.570;2022-09-11T01:01:17;31.73;;;14.88;;
37791;SDS011;29527;55.766;37.570;2022-09-11T01:03:42;37.95;;;15.73;;
37791;SDS011;29527;55.766;37.570;2022-09-11T01:06:08;32.92;;;14.77;;
37791;SDS011;29527;55.766;37.570;2022-09-11T01:08:35;33.22;;;16.13;;
37791;SDS011;29527;55.766;37.570;2022-09-11T01:13:33;31.27;;;15.40;;
37791;SDS011;29527;55.766;37.570;2022-09-11T01:16:18;33.45;;;15.63;;
37791;SDS011;29527;55.766;37.570;2022-09-11T01:18:54;35.33;;;15.32;;
37791;SDS011;29527;55.766;37.570;2022-09-11T01:24:11;36.13;;;15.57;;
37791;SDS011;29527;55.766;37.570;2022-09-11T01:37:12;30.52;;;15.00;;
37791;SDS011;29527;55.766;37.570;2022-09-11T01:39:44;28.85;;;14.75;;
37791;SDS011;29527;55.766;37.570;2022-09-11T01:42:15;40.20;;;14.70;;
37791;SDS011;29527;55.766;37.570;2022-09-11T01:44:50;28.92;;;14.13;;
37791;SDS011;29527;55.766;37.570;2022-09-11T01:47:19;32.83;;;15.05;;
37791;SDS011;29527;55.766;37.570;2022-09-11T01:49:50;38.95;;;14.63;;
37791;SDS011;29527;55.766;37.570;2022-09-11T01:52:24;33.38;;;14.02;;
37791;SDS011;29527;55.766;37.570;2022-09-11T01:54:55;35.30;;;14.68;;
37791;SDS011;29527;55.766;37.570;2022-09-11T01:57:28;28.10;;;13.88;;
37791;SDS011;29527;55.766;37.570;2022-09-11T02:00:01;30.52;;;15.02;;
37791;SDS011;29527;55.766;37.570;2022-09-11T02:02:34;29.38;;;14.23;;
37791;SDS011;29527;55.766;37.570;2022-09-11T02:05:14;36.72;;;14.90;;
37791;SDS011;29527;55.766;37.570;2022-09-11T02:07:51;32.15;;;15.13;;
37791;SDS011;29527;55.766;37.570;2022-09-11T02:13:04;32.75;;;14.18;;
37791;SDS011;29527;55.766;37.570;2022-09-11T02:15:38;38.05;;;15.25;;
37791;SDS011;29527;55.766;37.570;2022-09-11T02:18:11;30.85;;;14.90;;
37791;SDS011;29527;55.766;37.570;2022-09-11T02:20:44;29.45;;;14.55;;
37791;SDS011;29527;55.766;37.570;2022-09-11T02:23:12;34.55;;;14.95;;
37791;SDS011;29527;55.766;37.570;2022-09-11T02:25:39;30.92;;;14.25;;
37791;SDS011;29527;55.766;37.570;2022-09-11T02:28:05;37.42;;;14.73;;
37791;SDS011;29527;55.766;37.570;2022-09-11T02:30:31;34.20;;;15.07;;
37791;SDS011;29527;55.766;37.570;2022-09-11T02:32:56;32.25;;;14.60;;
37791;SDS011;29527;55.766;37.570;2022-09-11T02:35:23;37.83;;;14.70;;
37791;SDS011;29527;55.766;37.570;2022-09-11T02:41:09;32.83;;;13.95;;
37791;SDS011;29527;55.766;37.570;2022-09-11T02:46:33;27.33;;;14.18;;
37791;SDS011;29527;55.766;37.570;2022-09-11T02:52:09;28.98;;;14.73;;
37791;SDS011;29527;55.766;37.570;2022-09-11T02:54:55;27.15;;;14.07;;
37791;SDS011;29527;55.766;37.570;2022-09-11T02:57:35;25.98;;;14.32;;
37791;SDS011;29527;55.766;37.570;2022-09-11T03:00:07;24.85;;;14.38;;
37791;SDS011;29527;55.766;37.570;2022-09-11T03:02:35;28.98;;;14.73;;
37791;SDS011;29527;55.766;37.570;2022-09-11T03:05:05;21.90;;;14.52;;
37791;SDS011;29527;55.766;37.570;2022-09-11T03:07:31;27.95;;;15.07;;
37791;SDS011;29527;55.766;37.570;2022-09-11T03:09:57;28.05;;;14.48;;
37791;SDS011;29527;55.766;37.570;2022-09-11T03:12:23;25.35;;;13.85;;
37791;SDS011;29527;55.766;37.570;2022-09-11T03:14:49;29.42;;;14.02;;
37791;SDS011;29527;55.766;37.570;2022-09-11T03:17:15;32.60;;;15.10;;
37791;SDS011;29527;55.766;37.570;2022-09-11T03:19:41;29.70;;;16.45;;
37791;SDS011;29527;55.766;37.570;2022-09-11T03:22:06;27.40;;;14.98;;
37791;SDS011;29527;55.766;37.570;2022-09-11T03:24:32;31.63;;;15.43;;
37791;SDS011;29527;55.766;37.570;2022-09-11T03:26:57;29.88;;;14.45;;
37791;SDS011;29527;55.766;37.570;2022-09-11T03:29:23;26.55;;;14.48;;
37791;SDS011;29527;55.766;37.570;2022-09-11T03:31:48;31.67;;;15.50;;
37791;SDS011;29527;55.766;37.570;2022-09-11T03:34:14;25.88;;;14.40;;
37791;SDS011;29527;55.766;37.570;2022-09-11T03:36:42;25.30;;;14.63;;
37791;SDS011;29527;55.766;37.570;2022-09-11T03:39:08;23.33;;;13.70;;
37791;SDS011;29527;55.766;37.570;2022-09-11T03:41:34;26.38;;;13.85;;
37791;SDS011;29527;55.766;37.570;2022-09-11T03:43:59;29.45;;;14.32;;
37791;SDS011;29527;55.766;37.570;2022-09-11T03:46:25;25.40;;;13.98;;
37791;SDS011;29527;55.766;37.570;2022-09-11T03:48:52;26.98;;;13.57;;
37791;SDS011;29527;55.766;37.570;2022-09-11T03:51:17;23.17;;;13.70;;
37791;SDS011;29527;55.766;37.570;2022-09-11T03:53:43;27.67;;;14.15;;
37791;SDS011;29527;55.766;37.570;2022-09-11T03:56:09;29.00;;;13.63;;
37791;SDS011;29527;55.766;37.570;2022-09-11T03:58:35;25.80;;;14.13;;
37791;SDS011;29527;55.766;37.570;2022-09-11T04:01:06;25.90;;;13.48;;
37791;SDS011;29527;55.766;37.570;2022-09-11T04:03:34;23.55;;;12.57;;
37791;SDS011;29527;55.766;37.570;2022-09-11T04:06:00;23.67;;;13.75;;
37791;SDS011;29527;55.766;37.570;2022-09-11T04:08:27;21.70;;;12.93;;
37791;SDS011;29527;55.766;37.570;2022-09-11T04:10:58;24.38;;;13.20;;
37791;SDS011;29527;55.766;37.570;2022-09-11T04:13:32;24.27;;;13.98;;
37791;SDS011;29527;55.766;37.570;2022-09-11T04:16:00;22.67;;;13.30;;
37791;SDS011;29527;55.766;37.570;2022-09-11T04:18:27;25.27;;;14.48;;
37791;SDS011;29527;55.766;37.570;2022-09-11T04:20:54;25.85;;;14.20;;
37791;SDS011;29527;55.766;37.570;2022-09-11T04:23:20;27.02;;;14.15;;
37791;SDS011;29527;55.766;37.570;2022-09-11T04:25:45;31.08;;;14.02;;
37791;SDS011;29527;55.766;37.570;2022-09-11T04:28:12;27.27;;;14.00;;
37791;SDS011;29527;55.766;37.570;2022-09-11T04:30:38;31.27;;;13.68;;
37791;SDS011;29527;55.766;37.570;2022-09-11T04:33:04;23.73;;;13.05;;
37791;SDS011;29527;55.766;37.570;2022-09-11T04:35:35;29.58;;;13.45;;
37791;SDS011;29527;55.766;37.570;2022-09-11T04:38:01;26.13;;;13.77;;
37791;SDS011;29527;55.766;37.570;2022-09-11T04:40:27;24.13;;;12.38;;
37791;SDS011;29527;55.766;37.570;2022-09-11T04:42:52;26.42;;;12.50;;
37791;SDS011;29527;55.766;37.570;2022-09-11T04:45:17;26.70;;;12.02;;
37791;SDS011;29527;55.766;37.570;2022-09-11T04:47:43;19.27;;;12.18;;
37791;SDS011;29527;55.766;37.570;2022-09-11T04:50:08;24.83;;;12.15;;
37791;SDS011;29527;55.766;37.570;2022-09-11T04:52:34;28.60;;;11.43;;
37791;SDS011;29527;55.766;37.570;2022-09-11T04:54:59;29.00;;;12.98;;
37791;SDS011;29527;55.766;37.570;2022-09-11T04:57:28;21.73;;;11.77;;
37791;SDS011;29527;55.766;37.570;2022-09-11T04:59:54;27.05;;;11.82;;
37791;SDS011;29527;55.766;37.570;2022-09-11T05:02:20;26.52;;;11.65;;
37791;SDS011;29527;55.766;37.570;2022-09-11T05:04:46;21.02;;;12.15;;
37791;SDS011;29527;55.766;37.570;2022-09-11T05:07:11;20.83;;;11.93;;
37791;SDS011;29527;55.766;37.570;2022-09-11T05:09:40;24.65;;;12.13;;
37791;SDS011;29527;55.766;37.570;2022-09-11T05:12:05;21.05;;;11.07;;
37791;SDS011;29527;55.766;37.570;2022-09-11T05:14:31;22.00;;;11.15;;
37791;SDS011;29527;55.766;37.570;2022-09-11T05:16:57;17.17;;;10.38;;
37791;SDS011;29527;55.766;37.570;2022-09-11T05:19:22;17.35;;;10.93;;
37791;SDS011;29527;55.766;37.570;2022-09-11T05:21:49;20.17;;;10.15;;
37791;SDS011;29527;55.766;37.570;2022-09-11T05:24:15;16.67;;;9.77;;
37791;SDS011;29527;55.766;37.570;2022-09-11T05:26:40;22.35;;;9.30;;
37791;SDS011;29527;55.766;37.570;2022-09-11T05:29:07;17.25;;;10.23;;
37791;SDS011;29527;55.766;37.570;2022-09-11T05:31:36;16.02;;;9.35;;
37791;SDS011;29527;55.766;37.570;2022-09-11T05:34:02;14.23;;;8.70;;
37791;SDS011;29527;55.766;37.570;2022-09-11T05:36:28;16.17;;;8.77;;
37791;SDS011;29527;55.766;37.570;2022-09-11T05:38:55;15.82;;;9.30;;
37791;SDS011;29527;55.766;37.570;2022-09-11T05:41:21;18.27;;;8.95;;
37791;SDS011;29527;55.766;37.570;2022-09-11T05:43:46;14.18;;;8.88;;
37791;SDS011;29527;55.766;37.570;2022-09-11T05:46:13;16.33;;;8.60;;
37791;SDS011;29527;55.766;37.570;2022-09-11T05:48:40;15.20;;;8.93;;
37791;SDS011;29527;55.766;37.570;2022-09-11T05:51:11;12.07;;;7.82;;
37791;SDS011;29527;55.766;37.570;2022-09-11T05:53:38;14.70;;;7.78;;
37791;SDS011;29527;55.766;37.570;2022-09-11T05:56:08;13.65;;;7.63;;
37791;SDS011;29527;55.766;37.570;2022-09-11T05:58:38;15.25;;;8.10;;
37791;SDS011;29527;55.766;37.570;2022-09-11T06:01:10;20.10;;;8.10;;
37791;SDS011;29527;55.766;37.570;2022-09-11T06:03:38;12.80;;;7.65;;
37791;SDS011;29527;55.766;37.570;2022-09-11T06:06:05;14.70;;;8.43;;
37791;SDS011;29527;55.766;37.570;2022-09-11T06:08:32;18.92;;;8.70;;
37791;SDS011;29527;55.766;37.570;2022-09-11T06:11:01;12.75;;;7.88;;
37791;SDS011;29527;55.766;37.570;2022-09-11T06:13:32;11.18;;;6.88;;
37791;SDS011;29527;55.766;37.570;2022-09-11T06:16:03;10.70;;;6.88;;
37791;SDS011;29527;55.766;37.570;2022-09-11T06:18:29;12.05;;;6.40;;
37791;SDS011;29527;55.766;37.570;2022-09-11T06:20:58;12.13;;;6.45;;
37791;SDS011;29527;55.766;37.570;2022-09-11T06:23:28;11.07;;;7.00;;
37791;SDS011;29527;55.766;37.570;2022-09-11T06:26:00;8.15;;;5.90;;
37791;SDS011;29527;55.766;37.570;2022-09-11T06:28:27;7.32;;;5.20;;
37791;SDS011;29527;55.766;37.570;2022-09-11T06:30:52;10.52;;;5.40;;
37791;SDS011;29527;55.766;37.570;2022-09-11T06:33:18;6.97;;;5.07;;
37791;SDS011;29527;55.766;37.570;2022-09-11T06:35:56;9.05;;;5.03;;
37791;SDS011;29527;55.766;37.570;2022-09-11T06:38:23;8.73;;;5.50;;
37791;SDS011;29527;55.766;37.570;2022-09-11T06:40:49;8.77;;;5.25;;
37791;SDS011;29527;55.766;37.570;2022-09-11T06:43:16;9.05;;;5.10;;
37791;SDS011;29527;55.766;37.570;2022-09-11T06:45:42;7.43;;;5.22;;
37791;SDS011;29527;55.766;37.570;2022-09-11T06:48:07;7.65;;;4.47;;
37791;SDS011;29527;55.766;37.570;2022-09-11T06:50:36;7.63;;;4.70;;
37791;SDS011;29527;55.766;37.570;2022-09-11T06:53:08;5.35;;;3.97;;
37791;SDS011;29527;55.766;37.570;2022-09-11T06:55:34;7.53;;;3.63;;
37791;SDS011;29527;55.766;37.570;2022-09-11T06:58:00;5.50;;;3.40;;
37791;SDS011;29527;55.766;37.570;2022-09-11T07:00:26;4.07;;;3.20;;
37791;SDS011;29527;55.766;37.570;2022-09-11T07:02:53;6.15;;;4.20;;
37791;SDS011;29527;55.766;37.570;2022-09-11T07:05:19;11.00;;;4.47;;
37791;SDS011;29527;55.766;37.570;2022-09-11T07:07:46;6.55;;;4.75;;
37791;SDS011;29527;55.766;37.570;2022-09-11T07:10:14;8.95;;;4.22;;
37791;SDS011;29527;55.766;37.570;2022-09-11T07:12:40;6.07;;;4.25;;
37791;SDS011;29527;55.766;37.570;2022-09-11T07:15:06;7.07;;;4.03;;
37791;SDS011;29527;55.766;37.570;2022-09-11T07:17:32;7.80;;;4.00;;
37791;SDS011;29527;55.766;37.570;2022-09-11T07:19:58;5.78;;;3.58;;
37791;SDS011;29527;55.766;37.570;2022-09-11T07:22:24;7.35;;;3.90;;
37791;SDS011;29527;55.766;37.570;2022-09-11T07:24:50;6.50;;;4.40;;
37791;SDS011;29527;55.766;37.570;2022-09-11T07:27:18;7.40;;;4.30;;
37791;SDS011;29527;55.766;37.570;2022-09-11T07:29:45;8.60;;;4.28;;
37791;SDS011;29527;55.766;37.570;2022-09-11T07:32:10;11.00;;;4.35;;
37791;SDS011;29527;55.766;37.570;2022-09-11T07:34:36;5.93;;;4.20;;
37791;SDS011;29527;55.766;37.570;2022-09-11T07:37:01;6.38;;;3.90;;
37791;SDS011;29527;55.766;37.570;2022-09-11T07:39:27;7.68;;;4.28;;
37791;SDS011;29527;55.766;37.570;2022-09-11T07:41:52;4.28;;;3.00;;
37791;SDS011;29527;55.766;37.570;2022-09-11T07:44:18;4.53;;;3.08;;
37791;SDS011;29527;55.766;37.570;2022-09-11T07:46:44;8.23;;;3.60;;
37791;SDS011;29527;55.766;37.570;2022-09-11T07:49:10;5.38;;;3.30;;
37791;SDS011;29527;55.766;37.570;2022-09-11T07:51:36;6.40;;;3.15;;
37791;SDS011;29527;55.766;37.570;2022-09-11T07:54:01;8.57;;;3.67;;
37791;SDS011;29527;55.766;37.570;2022-09-11T07:56:27;4.45;;;3.30;;
37791;SDS011;29527;55.766;37.570;2022-09-11T07:58:55;7.43;;;3.30;;
37791;SDS011;29527;55.766;37.570;2022-09-11T08:01:24;9.02;;;3.72;;
37791;SDS011;29527;55.766;37.570;2022-09-11T08:04:12;8.40;;;3.25;;
37791;SDS011;29527;55.766;37.570;2022-09-11T08:06:41;4.35;;;2.80;;
37791;SDS011;29527;55.766;37.570;2022-09-11T08:09:10;5.10;;;2.92;;
37791;SDS011;29527;55.766;37.570;2022-09-11T08:11:43;6.55;;;3.58;;
37791;SDS011;29527;55.766;37.570;2022-09-11T08:14:11;7.38;;;3.70;;
37791;SDS011;29527;55.766;37.570;2022-09-11T08:16:37;4.63;;;3.60;;
37791;SDS011;29527;55.766;37.570;2022-09-11T08:19:03;7.10;;;4.07;;
37791;SDS011;29527;55.766;37.570;2022-09-11T08:21:30;6.53;;;3.65;;
37791;SDS011;29527;55.766;37.570;2022-09-11T08:23:56;7.93;;;3.88;;
37791;SDS011;29527;55.766;37.570;2022-09-11T08:26:28;6.28;;;4.28;;
37791;SDS011;29527;55.766;37.570;2022-09-11T08:28:55;8.18;;;4.68;;
37791;SDS011;29527;55.766;37.570;2022-09-11T08:31:23;10.40;;;5.15;;
37791;SDS011;29527;55.766;37.570;2022-09-11T08:33:51;9.02;;;4.65;;
37791;SDS011;29527;55.766;37.570;2022-09-11T08:36:17;11.05;;;5.18;;
37791;SDS011;29527;55.766;37.570;2022-09-11T08:38:43;12.32;;;5.18;;
37791;SDS011;29527;55.766;37.570;2022-09-11T08:43:52;11.27;;;5.18;;
37791;SDS011;29527;55.766;37.570;2022-09-11T08:46:21;8.68;;;4.60;;
37791;SDS011;29527;55.766;37.570;2022-09-11T08:51:34;5.38;;;4.50;;
37791;SDS011;29527;55.766;37.570;2022-09-11T08:54:00;5.47;;;4.55;;
37791;SDS011;29527;55.766;37.570;2022-09-11T08:56:28;6.28;;;4.30;;
37791;SDS011;29527;55.766;37.570;2022-09-11T09:12:21;7.72;;;3.78;;
37791;SDS011;29527;55.766;37.570;2022-09-11T09:17:14;6.43;;;3.75;;
37791;SDS011;29527;55.766;37.570;2022-09-11T09:19:46;9.25;;;3.92;;
37791;SDS011;29527;55.766;37.570;2022-09-11T09:25:09;9.93;;;4.13;;
37791;SDS011;29527;55.766;37.570;2022-09-11T09:27:39;5.72;;;3.70;;
37791;SDS011;29527;55.766;37.570;2022-09-11T09:30:16;5.95;;;3.83;;
37791;SDS011;29527;55.766;37.570;2022-09-11T09:35:31;5.45;;;3.05;;
37791;SDS011;29527;55.766;37.570;2022-09-11T09:38:13;8.57;;;3.33;;
37791;SDS011;29527;55.766;37.570;2022-09-11T09:40:53;5.28;;;3.30;;
37791;SDS011;29527;55.766;37.570;2022-09-11T09:49:13;4.30;;;2.83;;
37791;SDS011;29527;55.766;37.570;2022-09-11T09:51:48;8.52;;;3.72;;
37791;SDS011;29527;55.766;37.570;2022-09-11T09:54:15;5.15;;;3.00;;
37791;SDS011;29527;55.766;37.570;2022-09-11T09:56:45;8.93;;;3.25;;
37791;SDS011;29527;55.766;37.570;2022-09-11T09:59:18;12.85;;;3.20;;
37791;SDS011;29527;55.766;37.570;2022-09-11T10:01:50;5.15;;;3.00;;
37791;SDS011;29527;55.766;37.570;2022-09-11T10:04:25;5.22;;;3.30;;
37791;SDS011;29527;55.766;37.570;2022-09-11T10:07:04;5.18;;;2.67;;
37791;SDS011;29527;55.766;37.570;2022-09-11T10:09:30;8.57;;;3.50;;
37791;SDS011;29527;55.766;37.570;2022-09-11T10:14:26;5.28;;;3.30;;
37791;SDS011;29527;55.766;37.570;2022-09-11T10:16:56;5.00;;;3.65;;
37791;SDS011;29527;55.766;37.570;2022-09-11T10:19:35;7.15;;;3.47;;
37791;SDS011;29527;55.766;37.570;2022-09-11T10:22:14;4.40;;;3.30;;
37791;SDS011;29527;55.766;37.570;2022-09-11T10:25:00;8.00;;;3.53;;
37791;SDS011;29527;55.766;37.570;2022-09-11T10:28:16;6.30;;;3.30;;
37791;SDS011;29527;55.766;37.570;2022-09-11T10:30:36;8.25;;;3.75;;
37791;SDS011;29527;55.766;37.570;2022-09-11T10:35:53;9.20;;;3.70;;
37791;SDS011;29527;55.766;37.570;2022-09-11T10:38:26;7.82;;;3.63;;
37791;SDS011;29527;55.766;37.570;2022-09-11T10:41:14;5.05;;;3.30;;
37791;SDS011;29527;55.766;37.570;2022-09-11T10:51:31;10.13;;;4.82;;
37791;SDS011;29527;55.766;37.570;2022-09-11T10:57:16;11.20;;;3.60;;
37791;SDS011;29527;55.766;37.570;2022-09-11T11:02:15;7.60;;;3.67;;
37791;SDS011;29527;55.766;37.570;2022-09-11T11:04:44;9.88;;;3.65;;
37791;SDS011;29527;55.766;37.570;2022-09-11T11:07:19;4.20;;;3.03;;
37791;SDS011;29527;55.766;37.570;2022-09-11T11:32:40;8.25;;;2.97;;
37791;SDS011;29527;55.766;37.570;2022-09-11T11:37:54;9.82;;;3.80;;
37791;SDS011;29527;55.766;37.570;2022-09-11T11:40:29;6.15;;;3.25;;
37791;SDS011;29527;55.766;37.570;2022-09-11T11:43:02;6.28;;;3.22;;
37791;SDS011;29527;55.766;37.570;2022-09-11T11:45:44;6.93;;;3.35;;
37791;SDS011;29527;55.766;37.570;2022-09-11T11:51:24;8.07;;;3.80;;
37791;SDS011;29527;55.766;37.570;2022-09-11T11:53:59;8.50;;;4.20;;
37791;SDS011;29527;55.766;37.570;2022-09-11T11:56:55;9.25;;;4.30;;
37791;SDS011;29527;55.766;37.570;2022-09-11T11:59:27;6.80;;;3.90;;
37791;SDS011;29527;55.766;37.570;2022-09-11T12:04:38;6.80;;;4.67;;
37791;SDS011;29527;55.766;37.570;2022-09-11T12:07:10;7.90;;;4.20;;
37791;SDS011;29527;55.766;37.570;2022-09-11T12:09:44;9.32;;;4.43;;
37791;SDS011;29527;55.766;37.570;2022-09-11T12:12:11;6.88;;;4.75;;
37791;SDS011;29527;55.766;37.570;2022-09-11T12:14:39;8.18;;;4.60;;
37791;SDS011;29527;55.766;37.570;2022-09-11T12:17:16;8.20;;;5.07;;
37791;SDS011;29527;55.766;37.570;2022-09-11T12:22:36;7.40;;;4.55;;
37791;SDS011;29527;55.766;37.570;2022-09-11T12:30:22;8.65;;;4.72;;
37791;SDS011;29527;55.766;37.570;2022-09-11T12:32:51;7.75;;;4.20;;
37791;SDS011;29527;55.766;37.570;2022-09-11T12:38:18;9.20;;;3.53;;
37791;SDS011;29527;55.766;37.570;2022-09-11T12:40:57;10.77;;;3.70;;
37791;SDS011;29527;55.766;37.570;2022-09-11T12:51:38;7.53;;;3.50;;
37791;SDS011;29527;55.766;37.570;2022-09-11T12:54:11;5.28;;;2.78;;
37791;SDS011;29527;55.766;37.570;2022-09-11T12:56:41;6.38;;;2.60;;
37791;SDS011;29527;55.766;37.570;2022-09-11T12:59:20;3.85;;;2.47;;
37791;SDS011;29527;55.766;37.570;2022-09-11T13:01:49;10.52;;;2.20;;
37791;SDS011;29527;55.766;37.570;2022-09-11T13:04:19;5.10;;;2.28;;
37791;SDS011;29527;55.766;37.570;2022-09-11T13:06:51;9.98;;;2.58;;
37791;SDS011;29527;55.766;37.570;2022-09-11T13:09:29;4.75;;;3.00;;
37791;SDS011;29527;55.766;37.570;2022-09-11T13:14:52;8.00;;;2.42;;
37791;SDS011;29527;55.766;37.570;2022-09-11T13:17:32;5.18;;;2.15;;
37791;SDS011;29527;55.766;37.570;2022-09-11T13:22:37;4.07;;;1.90;;
37791;SDS011;29527;55.766;37.570;2022-09-11T13:25:19;6.75;;;1.77;;
37791;SDS011;29527;55.766;37.570;2022-09-11T13:27:50;4.25;;;2.30;;
37791;SDS011;29527;55.766;37.570;2022-09-11T13:30:19;5.97;;;2.13;;
37791;SDS011;29527;55.766;37.570;2022-09-11T13:32:47;3.05;;;2.22;;
37791;SDS011;29527;55.766;37.570;2022-09-11T13:35:17;7.13;;;2.53;;
37791;SDS011;29527;55.766;37.570;2022-09-11T13:37:57;6.95;;;2.38;;
37791;SDS011;29527;55.766;37.570;2022-09-11T13:40:31;3.70;;;2.22;;
37791;SDS011;29527;55.766;37.570;2022-09-11T13:43:08;7.55;;;2.13;;
37791;SDS011;29527;55.766;37.570;2022-09-11T13:45:39;6.45;;;2.47;;
37791;SDS011;29527;55.766;37.570;2022-09-11T13:48:11;5.90;;;2.22;;
37791;SDS011;29527;55.766;37.570;2022-09-11T13:50:49;4.20;;;2.83;;
37791;SDS011;29527;55.766;37.570;2022-09-11T13:53:16;4.00;;;2.67;;
37791;SDS011;29527;55.766;37.570;2022-09-11T13:55:46;4.65;;;2.70;;
37791;SDS011;29527;55.766;37.570;2022-09-11T13:58:23;7.90;;;2.72;;
37791;SDS011;29527;55.766;37.570;2022-09-11T14:00:53;5.30;;;2.33;;
37791;SDS011;29527;55.766;37.570;2022-09-11T14:03:21;4.97;;;2.15;;
37791;SDS011;29527;55.766;37.570;2022-09-11T14:06:25;5.22;;;2.60;;
37791;SDS011;29527;55.766;37.570;2022-09-11T14:08:51;3.97;;;2.40;;
37791;SDS011;29527;55.766;37.570;2022-09-11T14:11:20;5.90;;;2.40;;
37791;SDS011;29527;55.766;37.570;2022-09-11T14:13:54;5.55;;;2.38;;
37791;SDS011;29527;55.766;37.570;2022-09-11T14:16:26;6.10;;;2.50;;
37791;SDS011;29527;55.766;37.570;2022-09-11T14:19:06;6.35;;;2.20;;
37791;SDS011;29527;55.766;37.570;2022-09-11T14:21:35;4.55;;;2.50;;
37791;SDS011;29527;55.766;37.570;2022-09-11T14:24:03;3.95;;;2.20;;
37791;SDS011;29527;55.766;37.570;2022-09-11T14:26:48;3.65;;;2.20;;
37791;SDS011;29527;55.766;37.570;2022-09-11T14:31:48;3.47;;;2.20;;
37791;SDS011;29527;55.766;37.570;2022-09-11T14:34:19;4.50;;;2.20;;
37791;SDS011;29527;55.766;37.570;2022-09-11T14:36:50;7.30;;;2.10;;
37791;SDS011;29527;55.766;37.570;2022-09-11T14:39:39;5.07;;;2.15;;
37791;SDS011;29527;55.766;37.570;2022-09-11T14:42:14;9.15;;;2.83;;
37791;SDS011;29527;55.766;37.570;2022-09-11T14:44:42;7.10;;;2.55;;
37791;SDS011;29527;55.766;37.570;2022-09-11T14:47:18;5.40;;;2.33;;
37791;SDS011;29527;55.766;37.570;2022-09-11T14:49:52;3.35;;;2.55;;
37791;SDS011;29527;55.766;37.570;2022-09-11T14:52:23;3.58;;;2.47;;
37791;SDS011;29527;55.766;37.570;2022-09-11T14:54:50;4.47;;;2.38;;
37791;SDS011;29527;55.766;37.570;2022-09-11T14:57:17;3.78;;;2.42;;
37791;SDS011;29527;55.766;37.570;2022-09-11T14:59:44;3.78;;;2.50;;
37791;SDS011;29527;55.766;37.570;2022-09-11T15:02:10;6.25;;;2.88;;
37791;SDS011;29527;55.766;37.570;2022-09-11T15:04:37;4.90;;;2.70;;
37791;SDS011;29527;55.766;37.570;2022-09-11T15:07:02;8.38;;;2.80;;
37791;SDS011;29527;55.766;37.570;2022-09-11T15:09:28;6.57;;;2.30;;
37791;SDS011;29527;55.766;37.570;2022-09-11T15:11:53;7.88;;;2.42;;
37791;SDS011;29527;55.766;37.570;2022-09-11T15:14:19;3.72;;;2.47;;
37791;SDS011;29527;55.766;37.570;2022-09-11T15:16:46;12.55;;;2.78;;
37791;SDS011;29527;55.766;37.570;2022-09-11T15:19:12;6.45;;;2.75;;
37791;SDS011;29527;55.766;37.570;2022-09-11T15:21:39;5.22;;;2.53;;
37791;SDS011;29527;55.766;37.570;2022-09-11T15:24:05;9.00;;;3.33;;
37791;SDS011;29527;55.766;37.570;2022-09-11T15:26:31;5.25;;;3.10;;
37791;SDS011;29527;55.766;37.570;2022-09-11T15:28:57;7.63;;;3.03;;
37791;SDS011;29527;55.766;37.570;2022-09-11T15:31:23;6.53;;;2.80;;
37791;SDS011;29527;55.766;37.570;2022-09-11T15:33:49;9.48;;;3.40;;
37791;SDS011;29527;55.766;37.570;2022-09-11T15:36:16;6.63;;;3.22;;
37791;SDS011;29527;55.766;37.570;2022-09-11T15:38:42;7.93;;;3.00;;
37791;SDS011;29527;55.766;37.570;2022-09-11T15:41:14;5.65;;;3.25;;
37791;SDS011;29527;55.766;37.570;2022-09-11T15:43:39;8.00;;;2.70;;
37791;SDS011;29527;55.766;37.570;2022-09-11T15:46:09;7.35;;;3.00;;
37791;SDS011;29527;55.766;37.570;2022-09-11T15:48:39;4.10;;;2.47;;
37791;SDS011;29527;55.766;37.570;2022-09-11T15:51:05;5.88;;;2.88;;
37791;SDS011;29527;55.766;37.570;2022-09-11T15:53:32;5.10;;;2.35;;
37791;SDS011;29527;55.766;37.570;2022-09-11T15:56:04;5.45;;;2.67;;
37791;SDS011;29527;55.766;37.570;2022-09-11T15:58:31;6.43;;;2.65;;
37791;SDS011;29527;55.766;37.570;2022-09-11T16:00:58;5.90;;;2.42;;
37791;SDS011;29527;55.766;37.570;2022-09-11T16:03:24;8.82;;;2.92;;
37791;SDS011;29527;55.766;37.570;2022-09-11T16:05:50;6.60;;;3.22;;
37791;SDS011;29527;55.766;37.570;2022-09-11T16:08:16;9.50;;;2.95;;
37791;SDS011;29527;55.766;37.570;2022-09-11T16:10:41;6.25;;;2.78;;
37791;SDS011;29527;55.766;37.570;2022-09-11T16:13:07;8.52;;;3.00;;
37791;SDS011;29527;55.766;37.570;2022-09-11T16:15:33;5.85;;;3.10;;
37791;SDS011;29527;55.766;37.570;2022-09-11T16:18:00;9.60;;;3.75;;
37791;SDS011;29527;55.766;37.570;2022-09-11T16:20:26;10.48;;;3.15;;
37791;SDS011;29527;55.766;37.570;2022-09-11T16:22:52;11.15;;;3.05;;
37791;SDS011;29527;55.766;37.570;2022-09-11T16:25:19;10.45;;;3.30;;
37791;SDS011;29527;55.766;37.570;2022-09-11T16:27:44;9.23;;;3.30;;
37791;SDS011;29527;55.766;37.570;2022-09-11T16:30:11;6.65;;;3.20;;
37791;SDS011;29527;55.766;37.570;2022-09-11T16:32:37;9.27;;;3.33;;
37791;SDS011;29527;55.766;37.570;2022-09-11T16:35:07;6.43;;;3.17;;
37791;SDS011;29527;55.766;37.570;2022-09-11T16:37:37;9.18;;;3.10;;
37791;SDS011;29527;55.766;37.570;2022-09-11T16:40:03;8.60;;;3.20;;
37791;SDS011;29527;55.766;37.570;2022-09-11T16:42:29;13.40;;;3.20;;
37791;SDS011;29527;55.766;37.570;2022-09-11T16:44:55;8.02;;;3.83;;
37791;SDS011;29527;55.766;37.570;2022-09-11T16:47:21;7.25;;;2.85;;
37791;SDS011;29527;55.766;37.570;2022-09-11T16:49:46;7.65;;;4.43;;
37791;SDS011;29527;55.766;37.570;2022-09-11T16:52:13;11.70;;;4.22;;
37791;SDS011;29527;55.766;37.570;2022-09-11T16:54:38;7.70;;;3.60;;
37791;SDS011;29527;55.766;37.570;2022-09-11T16:57:04;6.55;;;3.88;;